الصفحة الرئيسية
METAR-TAF:

METAR-TAF

مطار :

زغرب, كرواتيا

دائرة عرض: 45-44N, خط طول: 016-04E, ارتفاع: 106 متر

مراقبة الطقس الحالي

تاريخ ووقت الإصدار 28 دقيقة قبل الساعة 20:00UTC
ريح 8 عقدة من الشمال/الشمال الشرقي, الاتجاه يتراوح بين الشمال و الشمال الشرقي
درجة الحرارة 16°درجة مئوية
الرطوبة 59%
ضغط 1020 hPa
الرؤية 10 كم أو أكثر
الغيوم لا تقل 1500 م ولا وجود لمزنة ركامية السحاب الأسود

METAR: LDZA 292000Z 02008KT 350V050 CAVOK 16/08 Q1020 NOSIG

زمن: 22:28 (20:28 UTC)

توقعات

تاريخ ووقت الإصدار 3ساعات و 3 دقيقة قبل الساعة 17:25UTC
التوقعات صالحة من29 الساعة 18 UTC إلى 30 الساعة 18 UTC
ريح 9 عقدة من الشمال الشرقي
الرؤية 10 كم أو أكثر
غيوم مفككة على ارتفاع 4000 قدم
نظرية الاحتمالات 40%
من 29 الساعة 18 UTC إلى 30 الساعة 06 UTC
ريح 2 عقدةمن اتجاهات متغيرة
نظرية الاحتمالات 30% :
مؤقت
من 29 الساعة 18 UTC إلى 29 الساعة 20 UTC
غيوم قليلة على ارتفاع 4500 قدم, مزن ركامية عمودية.
زخات من المطر

TAF: LDZA 291725Z 2918/3018 04009KT 9999 BKN040 TX20/3012Z TN10/3005Z PROB40 2918/3006 VRB02KT PROB30 TEMPO 2918/2920 SHRA FEW045TCU

أرصاد الطقس والتوقعات من أكثر من 4000 مطار (تقارير الطقس للمطار METAR والتنبؤ بالطقس بالمطارTAF).

المحطات المتاحة هي النقط الصفراء والحمراء على الخريطة.

حرك المؤشر فوق النقطة لمعرفة اسم المحطة.

ثم انقر لمعرفة أرصاد وتوقعات الطقس.

لتغيير الخارطة: اضغط على الأزرار الخضراء مع رمز الصليب الأسود للتكبير. على الزر الأخضر مع شرطة للتصغير، أو على الأسهم الخضراء للخرائط المجاورة.


METAR-TAF: